createdAt,value
2017-09-27T00:01:14.479Z,95723.34
2017-09-27T00:03:42.819Z,95726.39
2017-09-27T00:06:11.160Z,95723.70
2017-09-27T00:08:39.527Z,95721.19
2017-09-27T00:11:07.878Z,95718.41
2017-09-27T00:13:36.219Z,95718.03
2017-09-27T00:16:04.570Z,95723.56
2017-09-27T00:18:32.900Z,95717.51
2017-09-27T00:21:01.500Z,95719.05
2017-09-27T00:23:29.872Z,95722.44
2017-09-27T00:25:58.241Z,95720.00
2017-09-27T00:28:26.588Z,95713.72
2017-09-27T00:30:54.950Z,95713.45
2017-09-27T00:33:23.297Z,95717.02
2017-09-27T00:35:51.663Z,95717.97
2017-09-27T00:38:20.027Z,95714.91
2017-09-27T00:40:48.370Z,95715.08
2017-09-27T00:43:16.712Z,95716.13
2017-09-27T00:45:45.051Z,95710.33
2017-09-27T00:48:13.392Z,95709.30
2017-09-27T00:50:41.910Z,95707.88
2017-09-27T00:53:10.243Z,95711.83
2017-09-27T00:55:38.582Z,95707.91
2017-09-27T00:58:06.955Z,95705.35
2017-09-27T01:00:35.318Z,95703.15
2017-09-27T01:03:03.692Z,95699.47
2017-09-27T01:05:32.037Z,95703.46
2017-09-27T01:08:00.562Z,95693.05
2017-09-27T01:10:28.902Z,95701.98
2017-09-27T01:12:57.246Z,95696.14
2017-09-27T01:15:25.590Z,95698.17
2017-09-27T01:17:53.930Z,95700.28
2017-09-27T01:20:22.406Z,95695.08
2017-09-27T01:22:50.750Z,95697.25
2017-09-27T01:25:19.094Z,95695.45
2017-09-27T01:27:47.430Z,95695.47
2017-09-27T01:30:15.794Z,95692.20
2017-09-27T01:32:44.139Z,95691.03
2017-09-27T01:35:12.479Z,95692.54
2017-09-27T01:37:40.874Z,95693.25
2017-09-27T01:40:09.211Z,95689.52
2017-09-27T01:42:37.551Z,95687.11
2017-09-27T01:45:05.915Z,95689.69
2017-09-27T01:47:34.261Z,95687.16
2017-09-27T01:50:02.847Z,95689.58
2017-09-27T01:52:31.186Z,95685.70
2017-09-27T01:54:59.549Z,95681.66
2017-09-27T01:57:28.366Z,95687.73
2017-09-27T01:59:56.707Z,95685.06
2017-09-27T02:02:25.063Z,95684.02
2017-09-27T02:04:53.396Z,95678.38
2017-09-27T02:07:21.759Z,95684.20
2017-09-27T02:09:50.098Z,95686.67
2017-09-27T02:12:18.470Z,95681.33
2017-09-27T02:14:46.839Z,95680.23
2017-09-27T02:17:15.190Z,95680.39
2017-09-27T02:19:43.667Z,95681.79
2017-09-27T02:22:12.006Z,95680.11
2017-09-27T02:24:40.353Z,95678.06
2017-09-27T02:27:08.687Z,95683.54
2017-09-27T02:29:37.023Z,95688.56
2017-09-27T02:32:05.366Z,95680.89
2017-09-27T02:34:33.791Z,95681.50
2017-09-27T02:37:02.126Z,95682.25
2017-09-27T02:39:30.592Z,95682.20
2017-09-27T02:41:58.930Z,95681.61
2017-09-27T02:44:27.271Z,95673.15
2017-09-27T02:46:55.612Z,95679.33
2017-09-27T02:49:23.951Z,95679.77
2017-09-27T02:51:52.312Z,95680.97
2017-09-27T02:54:20.655Z,95683.66
2017-09-27T02:56:49.017Z,95685.53
2017-09-27T02:59:17.383Z,95687.36
2017-09-27T03:01:46.183Z,95682.44
2017-09-27T03:04:14.526Z,95685.34
2017-09-27T03:06:42.862Z,95684.86
2017-09-27T03:09:11.234Z,95687.27
2017-09-27T03:11:39.570Z,95687.36
2017-09-27T03:14:07.942Z,95690.16
2017-09-27T03:16:36.279Z,95693.70
2017-09-27T03:19:04.618Z,95695.09
2017-09-27T03:21:33.014Z,95704.55
2017-09-27T03:24:01.354Z,95703.00
2017-09-27T03:26:29.687Z,95696.99
2017-09-27T03:28:58.039Z,95697.34
2017-09-27T03:31:26.562Z,95708.55
2017-09-27T03:33:54.911Z,95703.27
2017-09-27T03:36:23.251Z,95705.34
2017-09-27T03:38:51.587Z,95706.93
2017-09-27T03:41:19.935Z,95706.34
2017-09-27T03:43:48.403Z,95709.37
2017-09-27T03:46:16.743Z,95711.02
2017-09-27T03:48:45.086Z,95703.94
2017-09-27T03:51:13.418Z,95708.33
2017-09-27T03:53:41.792Z,95707.41
2017-09-27T03:56:10.158Z,95708.14
2017-09-27T03:58:38.526Z,95707.19
2017-09-27T04:01:06.862Z,95708.84
2017-09-27T04:03:35.328Z,95714.53
2017-09-27T04:06:04.561Z,95708.31
2017-09-27T04:08:32.912Z,95706.02
2017-09-27T04:11:02.018Z,95710.26
2017-09-27T04:13:30.415Z,95707.57
2017-09-27T04:15:58.755Z,95712.22
2017-09-27T04:18:27.090Z,95713.30
2017-09-27T04:20:55.562Z,95707.92
2017-09-27T04:23:23.898Z,95707.09
2017-09-27T04:25:52.252Z,95710.95
2017-09-27T04:28:20.590Z,95709.41
2017-09-27T04:30:48.931Z,95708.61
2017-09-27T04:33:17.298Z,95706.26
2017-09-27T04:35:45.653Z,95711.37
2017-09-27T04:38:13.999Z,95710.72
2017-09-27T04:40:42.342Z,95712.71
2017-09-27T04:43:10.906Z,95712.03
2017-09-27T04:45:39.466Z,95709.09
2017-09-27T04:48:07.811Z,95713.69
2017-09-27T04:50:36.150Z,95716.91
2017-09-27T04:53:04.527Z,95720.13
2017-09-27T04:55:32.902Z,95719.83
2017-09-27T04:58:01.239Z,95729.00
2017-09-27T05:00:29.605Z,95721.97
2017-09-27T05:02:57.938Z,95720.70
2017-09-27T05:05:26.313Z,95724.27
2017-09-27T05:07:54.659Z,95724.33
2017-09-27T05:10:23.018Z,95721.74
2017-09-27T05:12:51.368Z,95723.48
2017-09-27T05:15:19.714Z,95720.15
2017-09-27T05:17:48.061Z,95725.36
2017-09-27T05:20:16.424Z,95727.30
2017-09-27T05:22:44.764Z,95730.27
2017-09-27T05:25:13.098Z,95722.38
2017-09-27T05:27:41.439Z,95728.08
2017-09-27T05:30:09.782Z,95725.59
2017-09-27T05:32:38.135Z,95717.31
2017-09-27T05:35:06.465Z,95724.10
2017-09-27T05:37:34.815Z,95727.70
2017-09-27T05:40:03.162Z,95727.08
2017-09-27T05:42:31.510Z,95724.56
2017-09-27T05:44:59.847Z,95730.66
2017-09-27T05:47:28.212Z,95736.86
2017-09-27T05:49:56.557Z,95734.47
2017-09-27T05:52:24.918Z,95736.30
2017-09-27T05:54:53.290Z,95738.83
2017-09-27T05:57:21.631Z,95741.78
2017-09-27T05:59:50.016Z,95737.37
2017-09-27T06:02:18.487Z,95740.83
2017-09-27T06:04:46.829Z,95742.77
2017-09-27T06:07:15.169Z,95743.73
2017-09-27T06:09:43.554Z,95737.10
2017-09-27T06:12:11.887Z,95738.13
2017-09-27T06:14:40.231Z,95740.42
2017-09-27T06:17:08.567Z,95751.30
2017-09-27T06:19:36.931Z,95751.72
2017-09-27T06:22:05.309Z,95748.83
2017-09-27T06:24:33.645Z,95747.63
2017-09-27T06:27:02.123Z,95756.42
2017-09-27T06:29:30.518Z,95757.95
2017-09-27T06:31:58.862Z,95752.03
2017-09-27T06:34:27.211Z,95749.64
2017-09-27T06:36:55.561Z,95750.11
2017-09-27T06:39:23.903Z,95753.47
2017-09-27T06:41:52.246Z,95754.28
2017-09-27T06:44:20.718Z,95754.23
2017-09-27T06:46:49.068Z,95751.45
2017-09-27T06:49:17.423Z,95748.03
2017-09-27T06:51:45.767Z,95751.35
2017-09-27T06:54:14.899Z,95754.58
2017-09-27T06:56:43.280Z,95756.69
2017-09-27T06:59:11.768Z,95760.11
2017-09-27T07:01:40.110Z,95756.75
2017-09-27T07:04:08.464Z,95755.50
2017-09-27T07:06:36.803Z,95760.11
2017-09-27T07:09:05.151Z,95752.11
2017-09-27T07:11:33.525Z,95759.91
2017-09-27T07:14:01.874Z,95755.54
2017-09-27T07:16:30.214Z,95756.72
2017-09-27T07:18:58.590Z,95759.44
2017-09-27T07:21:26.962Z,95763.38
2017-09-27T07:23:55.317Z,95757.77
2017-09-27T07:26:23.690Z,95760.88
2017-09-27T07:28:52.039Z,95763.32
2017-09-27T07:31:20.378Z,95764.95
2017-09-27T07:33:48.842Z,95768.92
2017-09-27T07:36:17.212Z,95762.30
2017-09-27T07:38:45.579Z,95762.14
2017-09-27T07:41:13.935Z,95763.11
2017-09-27T07:43:42.310Z,95764.22
2017-09-27T07:46:10.660Z,95765.45
2017-09-27T07:48:39.030Z,95769.64
2017-09-27T07:51:07.511Z,95770.23
2017-09-27T07:53:35.861Z,95766.86
2017-09-27T07:56:04.207Z,95772.86
2017-09-27T07:58:32.554Z,95772.58
2017-09-27T08:01:00.918Z,95765.08
2017-09-27T08:03:29.263Z,95775.80
2017-09-27T08:05:57.612Z,95772.52
2017-09-27T08:08:25.984Z,95772.80
2017-09-27T08:10:54.362Z,95771.77
2017-09-27T08:13:22.832Z,95771.23
2017-09-27T08:15:51.174Z,95774.82
2017-09-27T08:18:19.519Z,95775.72
2017-09-27T08:20:47.910Z,95771.71
2017-09-27T08:23:16.255Z,95777.63
2017-09-27T08:25:44.600Z,95774.64
2017-09-27T08:28:12.947Z,95776.09
2017-09-27T08:30:41.294Z,95778.70
2017-09-27T08:33:09.689Z,95779.16
2017-09-27T08:35:38.063Z,95780.30
2017-09-27T08:38:06.415Z,95782.62
2017-09-27T08:40:34.759Z,95780.48
2017-09-27T08:43:03.128Z,95785.87
2017-09-27T08:45:31.480Z,95780.58
2017-09-27T08:47:59.827Z,95783.02
2017-09-27T08:50:28.198Z,95776.41
2017-09-27T08:52:56.569Z,95781.72
2017-09-27T08:55:24.922Z,95786.89
2017-09-27T08:57:53.295Z,95775.47
2017-09-27T09:00:21.641Z,95776.14
2017-09-27T09:02:50.011Z,95783.89
2017-09-27T09:05:18.363Z,95777.56
2017-09-27T09:07:46.711Z,95780.03
2017-09-27T09:10:15.083Z,95776.52
2017-09-27T09:12:43.428Z,95778.15
2017-09-27T09:15:11.774Z,95775.02
2017-09-27T09:17:40.126Z,95774.98
2017-09-27T09:20:08.475Z,95773.61
2017-09-27T09:22:36.874Z,95769.16
2017-09-27T09:25:05.222Z,95767.30
2017-09-27T09:27:33.565Z,95769.86
2017-09-27T09:30:01.918Z,95774.45
2017-09-27T09:32:30.271Z,95777.64
2017-09-27T09:34:58.623Z,95769.45
2017-09-27T09:37:26.994Z,95770.77
2017-09-27T09:39:55.390Z,95765.91
2017-09-27T09:42:23.758Z,95774.84
2017-09-27T09:44:52.110Z,95769.75
2017-09-27T09:47:20.494Z,95766.13
2017-09-27T09:49:48.844Z,95769.80
2017-09-27T09:52:17.318Z,95768.91
2017-09-27T09:54:45.668Z,95761.64
2017-09-27T09:57:14.015Z,95767.01
2017-09-27T09:59:42.359Z,95767.27
2017-09-27T10:02:10.710Z,95762.79
2017-09-27T10:04:39.079Z,95753.41
2017-09-27T10:07:07.432Z,95759.11
2017-09-27T10:09:35.779Z,95756.14
2017-09-27T10:12:04.146Z,95756.47
2017-09-27T10:14:32.500Z,95749.73
2017-09-27T10:17:00.842Z,95747.83
2017-09-27T10:19:29.233Z,95748.98
2017-09-27T10:21:57.615Z,95745.69
2017-09-27T10:24:25.965Z,95748.94
2017-09-27T10:26:54.335Z,95751.18
2017-09-27T10:29:22.674Z,95748.87
2017-09-27T10:31:51.033Z,95750.45
2017-09-27T10:34:19.509Z,95747.83
2017-09-27T10:36:47.862Z,95744.52
2017-09-27T10:39:16.208Z,95749.86
2017-09-27T10:41:44.576Z,95752.36
2017-09-27T10:44:12.920Z,95747.66
2017-09-27T10:46:41.266Z,95746.02
2017-09-27T10:49:09.610Z,95748.18
2017-09-27T10:51:37.991Z,95751.46
2017-09-27T10:54:06.390Z,95741.50
2017-09-27T10:56:34.739Z,95745.45
2017-09-27T10:59:03.090Z,95743.59
2017-09-27T11:01:32.367Z,95741.28
2017-09-27T11:04:00.808Z,95746.56
2017-09-27T11:06:29.163Z,95742.34
2017-09-27T11:08:57.519Z,95743.39
2017-09-27T11:11:25.862Z,95746.56
2017-09-27T11:13:54.214Z,95741.41
2017-09-27T11:16:22.580Z,95737.27
2017-09-27T11:18:50.934Z,95740.78
2017-09-27T11:21:19.287Z,95738.31
2017-09-27T11:23:47.672Z,95742.95
2017-09-27T11:26:16.027Z,95733.19
2017-09-27T11:28:44.417Z,95738.50
2017-09-27T11:31:12.788Z,95739.87
2017-09-27T11:33:41.163Z,95736.58
2017-09-27T11:36:09.531Z,95726.84
2017-09-27T11:38:37.886Z,95721.84
2017-09-27T11:41:06.270Z,95724.70
2017-09-27T11:43:34.635Z,95728.89
2017-09-27T11:46:03.018Z,95722.52
2017-09-27T11:48:31.370Z,95726.93
2017-09-27T11:50:59.936Z,95723.91
2017-09-27T11:53:28.302Z,95718.14
2017-09-27T11:55:56.644Z,95717.63
2017-09-27T11:58:24.990Z,95721.03
2017-09-27T12:00:53.340Z,95716.19
2017-09-27T12:03:21.712Z,95720.61
2017-09-27T12:05:50.088Z,95724.00
2017-09-27T12:08:18.474Z,95723.42
2017-09-27T12:10:46.827Z,95724.01
2017-09-27T12:13:15.220Z,95718.17
2017-09-27T12:15:49.622Z,95718.44
2017-09-27T12:18:18.001Z,95719.80
2017-09-27T12:20:54.743Z,95722.21
2017-09-27T12:23:23.236Z,95717.94
2017-09-27T12:28:51.149Z,95713.42
2017-09-27T12:31:20.961Z,95708.66
2017-09-27T12:33:49.788Z,95707.19
2017-09-27T12:36:19.588Z,95711.71
2017-09-27T12:38:50.545Z,95706.48
2017-09-27T12:44:14.608Z,95704.97
2017-09-27T12:46:48.056Z,95710.26
2017-09-27T12:49:18.050Z,95702.61
2017-09-27T12:52:08.473Z,95703.33
2017-09-27T13:00:56.231Z,95689.70
2017-09-27T13:03:25.072Z,95686.49
2017-09-27T13:05:54.798Z,95693.95
2017-09-27T13:08:29.216Z,95688.27
2017-09-27T13:10:58.114Z,95686.56
2017-09-27T13:13:31.852Z,95689.06
2017-09-27T13:16:19.145Z,95689.93
2017-09-27T13:18:53.905Z,95691.45
2017-09-27T13:21:26.686Z,95689.81
2017-09-27T13:24:08.832Z,95687.42
2017-09-27T13:26:37.926Z,95689.92
2017-09-27T13:29:07.118Z,95690.34
2017-09-27T13:31:39.090Z,95689.38
2017-09-27T13:34:07.904Z,95689.33
2017-09-27T13:36:37.102Z,95686.80
2017-09-27T13:39:06.983Z,95687.87
2017-09-27T13:41:36.459Z,95684.68
2017-09-27T13:44:07.343Z,95684.44
2017-09-27T13:46:38.750Z,95684.09
2017-09-27T13:49:08.445Z,95685.52
2017-09-27T13:51:36.902Z,95680.11
2017-09-27T13:54:05.252Z,95687.77
2017-09-27T13:56:33.598Z,95688.38
2017-09-27T13:59:01.978Z,95684.53
2017-09-27T14:01:30.359Z,95684.06
2017-09-27T14:03:58.703Z,95676.12
2017-09-27T14:06:27.058Z,95680.50
2017-09-27T14:08:55.430Z,95679.05
2017-09-27T14:11:23.774Z,95673.32
2017-09-27T14:13:52.120Z,95679.22
2017-09-27T14:16:20.599Z,95682.12
2017-09-27T14:18:48.947Z,95678.61
2017-09-27T14:21:17.295Z,95669.26
2017-09-27T14:23:45.643Z,95674.29
2017-09-27T14:26:13.986Z,95670.01
2017-09-27T14:28:42.378Z,95671.13
2017-09-27T14:31:10.727Z,95678.48
2017-09-27T14:33:39.076Z,95686.13
2017-09-27T14:36:07.515Z,95674.59
2017-09-27T14:38:35.871Z,95672.33
2017-09-27T14:41:04.347Z,95672.70
2017-09-27T14:43:32.704Z,95670.19
2017-09-27T14:46:01.051Z,95658.30
2017-09-27T14:48:29.398Z,95664.31
2017-09-27T14:50:57.744Z,95671.23
2017-09-27T14:53:26.117Z,95670.38
2017-09-27T14:55:54.468Z,95668.14
2017-09-27T14:58:22.818Z,95668.93
2017-09-27T15:00:51.175Z,95666.58
2017-09-27T15:03:19.522Z,95655.36
2017-09-27T15:05:47.895Z,95659.92
2017-09-27T15:08:16.248Z,95660.73
2017-09-27T15:10:44.626Z,95665.78
2017-09-27T15:13:12.983Z,95672.58
2017-09-27T15:15:41.344Z,95665.91
2017-09-27T15:18:09.717Z,95667.86
2017-09-27T15:20:38.059Z,95671.44
2017-09-27T15:23:06.405Z,95667.58
2017-09-27T15:25:34.750Z,95668.52
2017-09-27T15:28:03.126Z,95670.47
2017-09-27T15:30:31.508Z,95675.05
2017-09-27T15:32:59.999Z,95680.06
2017-09-27T15:35:28.334Z,95679.55
2017-09-27T15:37:56.706Z,95677.33
2017-09-27T15:40:25.057Z,95678.02
2017-09-27T15:42:53.426Z,95681.72
2017-09-27T15:45:21.906Z,95681.17
2017-09-27T15:47:50.387Z,95686.97
2017-09-27T15:50:18.732Z,95683.54
2017-09-27T15:52:47.082Z,95690.39
2017-09-27T15:55:15.429Z,95690.72
2017-09-27T15:57:43.777Z,95692.46
2017-09-27T16:00:12.422Z,95700.52
2017-09-27T16:02:40.947Z,95706.11
2017-09-27T16:05:09.298Z,95709.63
2017-09-27T16:07:37.647Z,95706.21
2017-09-27T16:10:06.903Z,95710.28
2017-09-27T16:12:35.246Z,95710.91
2017-09-27T16:15:03.601Z,95714.08
2017-09-27T16:17:32.085Z,95717.27
2017-09-27T16:20:00.443Z,95713.55
2017-09-27T16:22:28.818Z,95716.92
2017-09-27T16:24:57.171Z,95716.38
2017-09-27T16:27:25.526Z,95717.47
2017-09-27T16:29:54.064Z,95717.96
2017-09-27T16:32:22.407Z,95722.34
2017-09-27T16:34:50.847Z,95719.69
2017-09-27T16:37:19.210Z,95718.48
2017-09-27T16:39:47.626Z,95718.41
2017-09-27T16:42:15.973Z,95719.30
2017-09-27T16:44:44.315Z,95719.22
2017-09-27T16:47:12.689Z,95720.98
2017-09-27T16:49:41.043Z,95720.41
2017-09-27T16:52:09.452Z,95722.68
2017-09-27T16:54:37.799Z,95720.23
2017-09-27T16:57:06.146Z,95721.31
2017-09-27T16:59:35.922Z,95725.00
2017-09-27T17:02:13.991Z,95730.27
2017-09-27T17:04:44.220Z,95727.73
2017-09-27T17:07:15.810Z,95725.13
2017-09-27T17:09:45.324Z,95739.25
2017-09-27T17:12:16.772Z,95737.04
2017-09-27T17:14:47.614Z,95740.65
2017-09-27T17:17:15.966Z,95735.63
2017-09-27T17:19:44.313Z,95742.66
2017-09-27T17:22:12.667Z,95737.36
2017-09-27T17:24:41.037Z,95738.04
2017-09-27T17:27:09.430Z,95741.91
2017-09-27T17:29:37.806Z,95747.56
2017-09-27T17:32:06.928Z,95745.73
2017-09-27T17:34:35.339Z,95742.74
2017-09-27T17:37:06.469Z,95749.47
2017-09-27T17:39:35.430Z,95750.34
2017-09-27T17:42:03.986Z,95753.73
2017-09-27T17:44:32.561Z,95753.82
2017-09-27T17:47:01.555Z,95752.81
2017-09-27T17:49:30.039Z,95759.02
2017-09-27T17:51:58.860Z,95761.61
2017-09-27T17:54:28.119Z,95750.61
2017-09-27T17:56:58.618Z,95755.59
2017-09-27T17:59:26.999Z,95761.30
2017-09-27T18:01:55.738Z,95753.20
2017-09-27T18:10:13.440Z,95759.62
2017-09-27T18:12:49.165Z,95755.26
2017-09-27T18:18:22.015Z,95761.10
2017-09-27T18:20:50.469Z,95765.13
2017-09-27T18:23:18.863Z,95761.31
2017-09-27T18:25:47.780Z,95759.84
2017-09-27T18:28:16.128Z,95768.32
2017-09-27T18:30:44.712Z,95769.17
2017-09-27T18:33:13.066Z,95767.81
2017-09-27T18:35:41.414Z,95769.11
2017-09-27T18:38:09.766Z,95774.07
2017-09-27T18:40:38.154Z,95771.36
2017-09-27T18:43:06.756Z,95763.11
2017-09-27T18:45:35.267Z,95769.67
2017-09-27T18:48:03.642Z,95774.49
2017-09-27T18:50:33.896Z,95774.35
2017-09-27T18:53:02.263Z,95766.83
2017-09-27T18:55:30.626Z,95768.52
2017-09-27T18:57:58.969Z,95771.82
2017-09-27T19:00:27.351Z,95773.84
2017-09-27T19:02:55.699Z,95771.75
2017-09-27T19:05:24.053Z,95768.96
2017-09-27T19:07:52.415Z,95766.52
2017-09-27T19:10:20.850Z,95770.59
2017-09-27T19:12:49.551Z,95777.36
2017-09-27T19:15:19.054Z,95778.23
2017-09-27T19:17:47.565Z,95780.28
2017-09-27T19:20:16.618Z,95778.15
2017-09-27T19:22:45.061Z,95779.08
2017-09-27T19:25:15.325Z,95784.94
2017-09-27T19:27:44.078Z,95778.19
2017-09-27T19:30:12.430Z,95780.23
2017-09-27T19:32:41.007Z,95783.40
2017-09-27T19:35:09.644Z,95782.23
2017-09-27T19:37:38.066Z,95781.83
2017-09-27T19:40:06.627Z,95783.61
2017-09-27T19:42:34.978Z,95774.07
2017-09-27T19:45:03.350Z,95779.84
2017-09-27T19:47:31.715Z,95779.28
2017-09-27T19:50:02.425Z,95780.41
2017-09-27T19:52:30.901Z,95782.14
2017-09-27T19:54:59.545Z,95780.59
2017-09-27T19:57:27.992Z,95775.68
2017-09-27T19:59:56.343Z,95773.48
2017-09-27T20:02:24.719Z,95781.81
2017-09-27T20:04:53.126Z,95778.70
2017-09-27T20:07:21.483Z,95777.56
2017-09-27T20:09:49.968Z,95774.48
2017-09-27T20:12:18.330Z,95773.55
2017-09-27T20:14:46.749Z,95771.33
2017-09-27T20:17:15.157Z,95775.80
2017-09-27T20:19:43.546Z,95771.77
2017-09-27T20:22:11.940Z,95774.47
2017-09-27T20:24:40.392Z,95766.41
2017-09-27T20:27:08.789Z,95771.04
2017-09-27T20:29:37.151Z,95769.73
2017-09-27T20:32:05.541Z,95765.78
2017-09-27T20:34:33.946Z,95769.78
2017-09-27T20:37:02.463Z,95761.52
2017-09-27T20:39:30.826Z,95760.02
2017-09-27T20:41:59.176Z,95761.31
2017-09-27T20:44:27.551Z,95760.30
2017-09-27T20:46:56.094Z,95763.86
2017-09-27T20:49:24.495Z,95764.56
2017-09-27T20:51:52.877Z,95761.63
2017-09-27T20:54:21.255Z,95764.26
2017-09-27T20:56:49.608Z,95771.42
2017-09-27T20:59:18.139Z,95762.73
2017-09-27T21:01:46.531Z,95768.41
2017-09-27T21:04:14.884Z,95760.77
2017-09-27T21:06:43.225Z,95761.72
2017-09-27T21:09:11.570Z,95771.62
2017-09-27T21:11:39.942Z,95762.23
2017-09-27T21:14:08.284Z,95767.16
2017-09-27T21:16:36.623Z,95759.80
2017-09-27T21:19:05.110Z,95761.69
2017-09-27T21:21:33.510Z,95770.80
2017-09-27T21:24:01.963Z,95763.70
2017-09-27T21:26:30.314Z,95768.79
2017-09-27T21:28:58.698Z,95767.52
2017-09-27T21:31:27.035Z,95765.66
2017-09-27T21:33:55.472Z,95764.91
2017-09-27T21:36:23.847Z,95763.13
2017-09-27T21:38:52.188Z,95758.84
2017-09-27T21:41:20.586Z,95758.98
2017-09-27T21:43:48.959Z,95753.11
2017-09-27T21:46:17.337Z,95752.07
2017-09-27T21:48:45.708Z,95748.43
2017-09-27T21:51:14.054Z,95747.89
2017-09-27T21:53:42.422Z,95754.77
2017-09-27T21:56:10.766Z,95750.76
2017-09-27T21:58:39.106Z,95749.77
2017-09-27T22:01:07.448Z,95745.98
2017-09-27T22:03:35.811Z,95751.94
2017-09-27T22:06:04.154Z,95751.15
2017-09-27T22:08:32.523Z,95752.12
2017-09-27T22:11:00.943Z,95746.63
2017-09-27T22:13:29.299Z,95747.49
2017-09-27T22:15:57.643Z,95749.33
2017-09-27T22:18:25.983Z,95747.28
2017-09-27T22:20:54.322Z,95741.08
2017-09-27T22:23:22.691Z,95742.75
2017-09-27T22:25:51.057Z,95737.73
2017-09-27T22:28:19.398Z,95736.39
2017-09-27T22:30:47.766Z,95736.58
2017-09-27T22:33:16.109Z,95735.91
2017-09-27T22:35:44.446Z,95732.96
2017-09-27T22:38:12.787Z,95732.80
2017-09-27T22:40:41.138Z,95734.48
2017-09-27T22:43:09.599Z,95727.69
2017-09-27T22:45:37.939Z,95731.13
2017-09-27T22:48:06.294Z,95731.74
2017-09-27T22:50:34.703Z,95735.97
2017-09-27T22:53:03.104Z,95730.00
2017-09-27T22:55:31.493Z,95727.84
2017-09-27T22:57:59.835Z,95734.68
2017-09-27T23:00:28.245Z,95737.16
2017-09-27T23:02:56.574Z,95730.32
2017-09-27T23:05:24.918Z,95734.63
2017-09-27T23:07:53.339Z,95737.97
2017-09-27T23:10:21.693Z,95734.78
2017-09-27T23:12:50.034Z,95740.46
2017-09-27T23:15:18.374Z,95741.38
2017-09-27T23:17:46.717Z,95744.88
2017-09-27T23:20:15.055Z,95740.16
2017-09-27T23:22:43.391Z,95738.70
2017-09-27T23:25:11.758Z,95740.36
2017-09-27T23:27:40.103Z,95740.64
2017-09-27T23:30:08.487Z,95738.95
2017-09-27T23:32:36.822Z,95737.27
2017-09-27T23:35:05.167Z,95736.43
2017-09-27T23:37:33.506Z,95739.84
2017-09-27T23:40:01.851Z,95741.66
2017-09-27T23:42:30.226Z,95736.42
2017-09-27T23:44:58.558Z,95736.52
2017-09-27T23:47:27.019Z,95745.23
2017-09-27T23:49:55.354Z,95735.40
2017-09-27T23:52:23.694Z,95732.30
2017-09-27T23:54:52.060Z,95735.48
2017-09-27T23:57:20.398Z,95734.30
2017-09-27T23:59:48.771Z,95733.91
